Decoded Metar for KLBO ( in ) (IATA:) | Meteo·Mobile Aviation Weather
aviador You're here:

KLBO Decoded Metar

in
Report Time2020-02-23 10:15:00
UTC Time2020-02-23 10:13:26
Flight Rules vfr VFR
Wind200° at 05 kt
W.Decomp.*RWY 18: 4.7 kt HW 1.7 kt RCW
Visibility9999 m
Phenomena:N/A
Clouds:N/A
Expected CloudBase > 4,400 ft AGL from Temp-Dew spread
CeilingNone
Temp05°C
Dew Point-6°C (45% RH)
AAT0.5°C
QNH1019 hPa
Raw Report
KLBO 231015Z AUTO 20005KT 10SM CLR 05/M06 A3008 RMK AO2=

Extra information for KLBO:More info

Social comments